createdAt,value
2023-01-01T00:00:32.506Z,6.37
2023-01-01T00:01:03.315Z,6.37
2023-01-01T00:01:35.757Z,6.37
2023-01-01T00:02:07.570Z,6.37
2023-01-01T00:02:37.021Z,6.37
2023-01-01T00:02:55.297Z,6.37
2023-01-01T00:03:27.365Z,6.26
2023-01-01T00:04:00.291Z,6.26
2023-01-01T00:04:31.426Z,6.26
2023-01-01T00:05:04.278Z,6.26
2023-01-01T00:05:34.561Z,6.26
2023-01-01T00:06:06.715Z,6.26
2023-01-01T00:06:23.915Z,6.26
2023-01-01T00:06:41.196Z,6.26
2023-01-01T00:07:11.279Z,6.26
2023-01-01T00:07:34.713Z,6.26
2023-01-01T00:08:04.671Z,6.26
2023-01-01T00:08:32.112Z,6.16
2023-01-01T00:09:03.334Z,6.16
2023-01-01T00:09:35.663Z,6.44
2023-01-01T00:10:07.477Z,6.16
2023-01-01T00:10:34.603Z,6.44
2023-01-01T00:10:55.608Z,6.33
2023-01-01T00:11:27.541Z,6.33
2023-01-01T00:12:00.050Z,6.33
2023-01-01T00:12:31.268Z,5.95
2023-01-01T00:13:03.944Z,6.23
2023-01-01T00:13:34.686Z,6.23
2023-01-01T00:14:11.877Z,6.23
2023-01-01T00:14:23.974Z,5.95
2023-01-01T00:14:41.177Z,5.95
2023-01-01T00:15:11.607Z,6.23
2023-01-01T00:15:34.691Z,6.23
2023-01-01T00:15:59.496Z,6.23
2023-01-01T00:16:32.781Z,6.23
2023-01-01T00:17:03.372Z,5.95
2023-01-01T00:17:36.173Z,6.18
2023-01-01T00:18:07.686Z,5.90
2023-01-01T00:18:38.664Z,5.90
2023-01-01T00:19:12.195Z,5.90
2023-01-01T00:19:35.368Z,6.18
2023-01-01T00:19:59.422Z,5.90
2023-01-01T00:20:35.200Z,5.90
2023-01-01T00:21:03.400Z,5.90
2023-01-01T00:21:34.603Z,5.90
2023-01-01T00:22:35.281Z,5.90
2023-01-01T00:22:56.307Z,5.90
2023-01-01T00:23:28.001Z,5.90
2023-01-01T00:23:59.304Z,5.90
2023-01-01T00:24:32.091Z,5.90
2023-01-01T00:25:03.520Z,6.08
2023-01-01T00:25:35.859Z,6.08
2023-01-01T00:26:07.234Z,6.08
2023-01-01T00:26:35.461Z,6.08
2023-01-01T00:26:55.580Z,5.80
2023-01-01T00:27:27.513Z,5.80
2023-01-01T00:28:00.186Z,5.80
2023-01-01T00:28:31.325Z,6.08
2023-01-01T00:29:04.036Z,6.08
2023-01-01T00:29:34.737Z,6.08
2023-01-01T00:30:07.018Z,5.98
2023-01-01T00:30:24.138Z,5.98
2023-01-01T00:30:41.518Z,5.98
2023-01-01T00:31:11.449Z,5.98
2023-01-01T00:31:34.705Z,5.98
2023-01-01T00:31:59.329Z,5.98
2023-01-01T00:32:32.361Z,5.98
2023-01-01T00:33:03.664Z,5.98
2023-01-01T00:33:36.169Z,5.87
2023-01-01T00:34:07.749Z,5.87
2023-01-01T00:34:34.697Z,5.87
2023-01-01T00:34:55.402Z,5.87
2023-01-01T00:35:27.596Z,5.87
2023-01-01T00:35:59.970Z,5.87
2023-01-01T00:36:31.410Z,5.76
2023-01-01T00:37:03.914Z,5.76
2023-01-01T00:37:34.699Z,5.76
2023-01-01T00:38:06.880Z,5.76
2023-01-01T00:38:24.156Z,5.76
2023-01-01T00:38:41.210Z,5.76
2023-01-01T00:39:11.301Z,5.76
2023-01-01T00:39:34.548Z,5.76
2023-01-01T00:39:59.288Z,5.76
2023-01-01T00:40:32.321Z,6.03
2023-01-01T00:41:03.261Z,5.76
2023-01-01T00:41:35.604Z,5.76
2023-01-01T00:42:07.254Z,5.76
2023-01-01T00:42:34.943Z,5.72
2023-01-01T00:42:55.381Z,5.72
2023-01-01T00:43:35.037Z,5.72
2023-01-01T00:44:00.221Z,5.76
2023-01-01T00:44:31.341Z,5.76
2023-01-01T00:45:04.805Z,5.76
2023-01-01T00:45:35.060Z,5.76
2023-01-01T00:45:51.361Z,5.76
2023-01-01T00:46:23.435Z,6.03
2023-01-01T00:46:40.518Z,5.76
2023-01-01T00:47:13.670Z,5.76
2023-01-01T00:47:34.545Z,5.76
2023-01-01T00:47:59.316Z,5.76
2023-01-01T00:48:31.412Z,5.76
2023-01-01T00:49:03.372Z,5.76
2023-01-01T00:49:34.679Z,5.76
2023-01-01T00:50:08.149Z,5.76
2023-01-01T00:50:34.528Z,5.76
2023-01-01T00:50:55.819Z,5.76
2023-01-01T00:51:30.481Z,5.76
2023-01-01T00:51:59.297Z,5.76
2023-01-01T00:52:31.678Z,5.76
2023-01-01T00:53:19.961Z,5.76
2023-01-01T00:53:51.330Z,5.76
2023-01-01T00:54:24.106Z,5.76
2023-01-01T00:54:40.993Z,5.76
2023-01-01T00:55:11.408Z,5.76
2023-01-01T00:55:34.710Z,5.49
2023-01-01T00:55:59.489Z,5.76
2023-01-01T00:56:32.005Z,5.49
2023-01-01T00:57:03.323Z,5.76
2023-01-01T00:57:35.993Z,5.76
2023-01-01T00:58:07.347Z,5.49
2023-01-01T00:58:34.559Z,5.76
2023-01-01T00:59:00.635Z,5.76
2023-01-01T00:59:29.141Z,5.76
2023-01-01T01:00:00.043Z,5.49
2023-01-01T01:00:31.553Z,5.49
2023-01-01T01:01:04.187Z,5.49
2023-01-01T01:01:34.785Z,5.59
2023-01-01T01:02:06.832Z,5.59
2023-01-01T01:02:24.172Z,5.59
2023-01-01T01:02:41.502Z,5.59
2023-01-01T01:03:11.467Z,5.59
2023-01-01T01:03:34.685Z,5.59
2023-01-01T01:03:59.303Z,5.59
2023-01-01T01:04:31.978Z,5.59
2023-01-01T01:05:03.432Z,5.59
2023-01-01T01:05:35.548Z,5.87
2023-01-01T01:06:07.326Z,5.87
2023-01-01T01:06:34.509Z,5.87
2023-01-01T01:06:55.344Z,5.87
2023-01-01T01:07:27.337Z,5.87
2023-01-01T01:08:00.073Z,5.76
2023-01-01T01:08:31.555Z,5.76
2023-01-01T01:09:04.231Z,5.76
2023-01-01T01:09:34.670Z,5.76
2023-01-01T01:10:06.899Z,5.76
2023-01-01T01:10:24.110Z,5.76
2023-01-01T01:10:41.276Z,5.76
2023-01-01T01:11:11.251Z,5.76
2023-01-01T01:11:35.391Z,5.76
2023-01-01T01:12:18.058Z,5.76
2023-01-01T01:12:32.005Z,5.76
2023-01-01T01:13:03.279Z,5.76
2023-01-01T01:13:35.534Z,5.76
2023-01-01T01:14:07.325Z,5.76
2023-01-01T01:14:34.525Z,5.76
2023-01-01T01:14:55.332Z,5.76
2023-01-01T01:15:27.500Z,5.76
2023-01-01T01:16:00.139Z,5.76
2023-01-01T01:16:31.340Z,5.76
2023-01-01T01:17:03.944Z,5.49
2023-01-01T01:17:34.613Z,5.49
2023-01-01T01:18:06.729Z,5.49
2023-01-01T01:18:23.788Z,5.76
2023-01-01T01:18:40.931Z,5.76
2023-01-01T01:19:11.779Z,5.76
2023-01-01T01:19:34.602Z,5.76
2023-01-01T01:19:59.382Z,5.76
2023-01-01T01:20:32.352Z,5.76
2023-01-01T01:21:03.275Z,5.76
2023-01-01T01:21:35.408Z,5.76
2023-01-01T01:22:07.424Z,5.76
2023-01-01T01:22:34.645Z,5.76
2023-01-01T01:22:55.472Z,5.76
2023-01-01T01:23:27.294Z,5.76
2023-01-01T01:23:59.823Z,5.76
2023-01-01T01:24:31.392Z,5.76
2023-01-01T01:25:04.319Z,5.76
2023-01-01T01:25:34.498Z,5.76
2023-01-01T01:25:51.208Z,5.76
2023-01-01T01:26:23.436Z,5.76
2023-01-01T01:26:40.490Z,5.76
2023-01-01T01:27:12.010Z,5.76
2023-01-01T01:27:34.614Z,5.76
2023-01-01T01:27:59.327Z,5.76
2023-01-01T01:28:31.330Z,5.76
2023-01-01T01:29:03.257Z,5.76
2023-01-01T01:29:34.511Z,5.76
2023-01-01T01:30:06.902Z,5.76
2023-01-01T01:30:23.993Z,5.76
2023-01-01T01:30:41.322Z,5.76
2023-01-01T01:31:11.314Z,5.76
2023-01-01T01:31:34.625Z,5.76
2023-01-01T01:31:59.354Z,5.76
2023-01-01T01:32:32.034Z,5.76
2023-01-01T01:33:03.325Z,5.76
2023-01-01T01:33:35.631Z,5.76
2023-01-01T01:34:09.722Z,5.76
2023-01-01T01:34:34.649Z,5.76
2023-01-01T01:34:55.238Z,5.76
2023-01-01T01:35:27.426Z,5.76
2023-01-01T01:36:00.228Z,5.76
2023-01-01T01:36:31.229Z,5.76
2023-01-01T01:37:04.031Z,5.76
2023-01-01T01:37:37.878Z,5.76
2023-01-01T01:38:08.043Z,5.72
2023-01-01T01:38:34.917Z,5.72
2023-01-01T01:38:55.362Z,5.72
2023-01-01T01:39:27.335Z,5.72
2023-01-01T01:39:59.272Z,5.72
2023-01-01T01:40:31.377Z,5.76
2023-01-01T01:41:03.273Z,5.76
2023-01-01T01:41:35.125Z,5.72
2023-01-01T01:42:07.444Z,5.72
2023-01-01T01:42:34.574Z,5.72
2023-01-01T01:42:55.295Z,5.72
2023-01-01T01:43:27.828Z,5.76
2023-01-01T01:43:59.358Z,5.76
2023-01-01T01:44:32.021Z,5.76
2023-01-01T01:45:03.613Z,5.76
2023-01-01T01:45:35.353Z,5.76
2023-01-01T01:46:07.290Z,5.76
2023-01-01T01:46:34.700Z,5.76
2023-01-01T01:46:55.348Z,5.76
2023-01-01T01:47:27.347Z,5.76
2023-01-01T01:48:00.054Z,5.76
2023-01-01T01:48:31.225Z,5.76
2023-01-01T01:49:03.362Z,5.76
2023-01-01T01:49:34.707Z,6.03
2023-01-01T01:49:51.910Z,5.76
2023-01-01T01:50:23.446Z,6.03
2023-01-01T01:50:40.348Z,6.03
2023-01-01T01:51:11.362Z,5.72
2023-01-01T01:51:34.810Z,5.98
2023-01-01T01:52:00.122Z,5.98
2023-01-01T01:52:31.193Z,5.98
2023-01-01T01:53:04.112Z,5.98
2023-01-01T01:53:34.705Z,5.98
2023-01-01T01:54:08.150Z,5.98
2023-01-01T01:54:34.624Z,5.98
2023-01-01T01:54:55.276Z,5.98
2023-01-01T01:55:27.472Z,5.98
2023-01-01T01:55:59.236Z,5.98
2023-01-01T01:56:31.257Z,5.98
2023-01-01T01:57:03.303Z,5.98
2023-01-01T01:57:34.954Z,5.98
2023-01-01T01:57:50.989Z,5.98
2023-01-01T01:58:24.213Z,5.98
2023-01-01T01:58:41.294Z,5.98
2023-01-01T01:59:11.323Z,5.98
2023-01-01T01:59:34.692Z,5.98
2023-01-01T02:00:01.416Z,5.88
2023-01-01T02:00:32.515Z,5.88
2023-01-01T02:01:03.479Z,5.88
2023-01-01T02:01:36.054Z,5.88
2023-01-01T02:02:07.284Z,5.98
2023-01-01T02:02:34.834Z,5.98
2023-01-01T02:02:55.460Z,5.98
2023-01-01T02:03:27.425Z,5.88
2023-01-01T02:04:00.169Z,5.88
2023-01-01T02:04:31.363Z,5.88
2023-01-01T02:05:04.027Z,5.88
2023-01-01T02:05:35.222Z,5.88
2023-01-01T02:06:08.382Z,5.88
2023-01-01T02:06:34.801Z,5.88
2023-01-01T02:06:55.346Z,5.98
2023-01-01T02:07:27.200Z,5.98
2023-01-01T02:07:59.233Z,5.98
2023-01-01T02:08:31.317Z,5.98
2023-01-01T02:09:03.362Z,5.98
2023-01-01T02:09:34.770Z,5.98
2023-01-01T02:09:51.094Z,5.98
2023-01-01T02:10:24.343Z,5.98
2023-01-01T02:10:41.440Z,5.88
2023-01-01T02:11:11.313Z,5.88
2023-01-01T02:11:34.611Z,5.88
2023-01-01T02:11:59.222Z,5.88
2023-01-01T02:12:32.320Z,5.98
2023-01-01T02:13:03.347Z,5.98
2023-01-01T02:13:35.653Z,5.98
2023-01-01T02:14:08.815Z,5.98
2023-01-01T02:14:34.682Z,5.98
2023-01-01T02:14:55.317Z,5.98
2023-01-01T02:15:27.641Z,6.26
2023-01-01T02:16:00.334Z,5.98
2023-01-01T02:16:31.264Z,6.26
2023-01-01T02:17:04.358Z,5.98
2023-01-01T02:17:39.028Z,5.98
2023-01-01T02:17:50.995Z,5.98
2023-01-01T02:18:23.262Z,6.26
2023-01-01T02:18:40.447Z,6.26
2023-01-01T02:19:11.927Z,6.26
2023-01-01T02:19:35.199Z,6.26
2023-01-01T02:19:59.608Z,6.26
2023-01-01T02:20:31.429Z,6.15
2023-01-01T02:21:03.352Z,6.15
2023-01-01T02:21:34.703Z,6.15
2023-01-01T02:21:51.028Z,6.15
2023-01-01T02:22:24.221Z,6.15
2023-01-01T02:22:41.293Z,6.15
2023-01-01T02:23:11.338Z,6.15
2023-01-01T02:23:34.725Z,6.26
2023-01-01T02:23:59.320Z,6.26
2023-01-01T02:24:32.028Z,6.26
2023-01-01T02:25:03.467Z,6.26
2023-01-01T02:25:36.843Z,6.26
2023-01-01T02:26:07.200Z,6.15
2023-01-01T02:26:34.628Z,6.15
2023-01-01T02:26:55.333Z,6.15
2023-01-01T02:27:27.449Z,6.15
2023-01-01T02:28:00.029Z,6.15
2023-01-01T02:28:31.290Z,6.15
2023-01-01T02:29:05.123Z,6.15
2023-01-01T02:29:34.749Z,6.40
2023-01-01T02:29:51.032Z,6.40
2023-01-01T02:30:23.533Z,6.15
2023-01-01T02:30:40.410Z,6.15
2023-01-01T02:31:12.177Z,6.15
2023-01-01T02:31:35.566Z,6.15
2023-01-01T02:31:59.180Z,6.15
2023-01-01T02:32:31.400Z,6.15
2023-01-01T02:33:03.324Z,6.51
2023-01-01T02:33:34.799Z,6.51
2023-01-01T02:33:51.024Z,6.51
2023-01-01T02:34:24.128Z,6.40
2023-01-01T02:34:41.216Z,6.40
2023-01-01T02:35:11.390Z,6.15
2023-01-01T02:35:35.200Z,6.15
2023-01-01T02:35:59.368Z,6.26
2023-01-01T02:36:32.419Z,6.51
2023-01-01T02:37:03.396Z,6.26
2023-01-01T02:37:35.723Z,6.26
2023-01-01T02:38:07.231Z,6.26
2023-01-01T02:38:34.637Z,6.26
2023-01-01T02:38:55.353Z,6.26
2023-01-01T02:39:27.298Z,6.51
2023-01-01T02:39:59.973Z,6.51
2023-01-01T02:40:31.444Z,6.51
2023-01-01T02:41:04.039Z,6.51
2023-01-01T02:41:35.538Z,6.51
2023-01-01T02:42:08.061Z,6.51
2023-01-01T02:42:35.013Z,6.51
2023-01-01T02:42:55.290Z,6.40
2023-01-01T02:43:27.299Z,6.40
2023-01-01T02:44:31.307Z,6.40
2023-01-01T02:45:03.625Z,6.40
2023-01-01T02:45:35.421Z,6.40
2023-01-01T02:46:07.244Z,6.30
2023-01-01T02:46:34.618Z,6.30
2023-01-01T02:46:55.292Z,6.30
2023-01-01T02:47:27.949Z,6.30
2023-01-01T02:47:59.185Z,6.30
2023-01-01T02:48:31.917Z,6.30
2023-01-01T02:49:09.610Z,6.30
2023-01-01T02:49:35.855Z,6.30
2023-01-01T02:50:07.387Z,6.40
2023-01-01T02:50:34.627Z,6.40
2023-01-01T02:50:55.411Z,6.40
2023-01-01T02:51:27.233Z,6.40
2023-01-01T02:52:00.017Z,6.40
2023-01-01T02:52:31.283Z,6.40
2023-01-01T02:53:04.153Z,6.40
2023-01-01T02:53:35.123Z,6.40
2023-01-01T02:54:08.187Z,6.40
2023-01-01T02:54:34.601Z,6.40
2023-01-01T02:54:55.275Z,6.40
2023-01-01T02:55:27.308Z,6.65
2023-01-01T02:55:59.187Z,6.65
2023-01-01T02:56:31.358Z,6.65
2023-01-01T02:57:03.384Z,6.55
2023-01-01T02:57:35.640Z,6.55
2023-01-01T02:58:07.230Z,6.55
2023-01-01T02:58:34.744Z,6.55
2023-01-01T02:58:55.260Z,6.55
2023-01-01T02:59:28.037Z,6.55
2023-01-01T02:59:59.279Z,6.55
2023-01-01T03:00:32.323Z,6.55
2023-01-01T03:01:03.360Z,6.55
2023-01-01T03:01:35.516Z,6.55
2023-01-01T03:02:07.387Z,6.55
2023-01-01T03:02:34.654Z,6.55
2023-01-01T03:02:55.443Z,6.30
2023-01-01T03:03:27.398Z,6.55
2023-01-01T03:04:00.227Z,6.55
2023-01-01T03:04:31.276Z,6.55
2023-01-01T03:05:04.309Z,6.55
2023-01-01T03:05:34.802Z,6.55
2023-01-01T03:05:51.252Z,6.55
2023-01-01T03:06:23.321Z,6.55
2023-01-01T03:06:40.405Z,6.55
2023-01-01T03:07:12.061Z,6.55
2023-01-01T03:07:35.370Z,6.55
2023-01-01T03:07:59.278Z,6.55
2023-01-01T03:08:31.281Z,6.55
2023-01-01T03:09:03.355Z,6.55
2023-01-01T03:09:35.148Z,6.55
2023-01-01T03:10:07.447Z,6.55
2023-01-01T03:10:34.536Z,6.55
2023-01-01T03:10:55.424Z,6.55
2023-01-01T03:11:28.007Z,6.55
2023-01-01T03:11:59.286Z,6.65
2023-01-01T03:12:32.617Z,6.65
2023-01-01T03:13:03.200Z,6.65
2023-01-01T03:13:35.311Z,6.65
2023-01-01T03:14:07.238Z,6.65
2023-01-01T03:14:34.569Z,6.65
2023-01-01T03:14:55.159Z,6.65
2023-01-01T03:15:27.407Z,6.55
2023-01-01T03:16:00.347Z,6.55
2023-01-01T03:16:31.316Z,6.55
2023-01-01T03:17:04.479Z,6.55
2023-01-01T03:17:34.736Z,6.81
2023-01-01T03:17:51.156Z,6.81
2023-01-01T03:18:23.336Z,6.81
2023-01-01T03:18:40.455Z,6.70
2023-01-01T03:19:12.011Z,6.70
2023-01-01T03:19:34.717Z,6.44
2023-01-01T03:19:59.269Z,6.70
2023-01-01T03:20:31.396Z,6.70
2023-01-01T03:21:03.205Z,6.70
2023-01-01T03:21:34.882Z,6.70
2023-01-01T03:21:51.107Z,6.70
2023-01-01T03:22:23.906Z,6.70
2023-01-01T03:23:11.146Z,6.70
2023-01-01T03:23:34.731Z,6.70
2023-01-01T03:23:59.336Z,6.70
2023-01-01T03:24:32.762Z,6.70
2023-01-01T03:25:03.452Z,6.70
2023-01-01T03:25:35.879Z,6.70
2023-01-01T03:26:07.283Z,6.70
2023-01-01T03:26:34.615Z,6.70
2023-01-01T03:26:55.180Z,6.70
2023-01-01T03:27:27.281Z,6.70
2023-01-01T03:27:59.883Z,6.70
2023-01-01T03:28:31.177Z,6.70
2023-01-01T03:29:04.232Z,6.70
2023-01-01T03:29:34.684Z,6.95
2023-01-01T03:29:51.168Z,6.95
2023-01-01T03:30:24.039Z,6.95
2023-01-01T03:30:40.361Z,6.70
2023-01-01T03:31:12.018Z,6.95
2023-01-01T03:31:34.899Z,6.95
2023-01-01T03:31:59.303Z,6.95
2023-01-01T03:32:31.289Z,6.85
2023-01-01T03:33:03.431Z,6.85
2023-01-01T03:33:35.573Z,6.85
2023-01-01T03:34:07.363Z,6.85
2023-01-01T03:34:34.736Z,6.85
2023-01-01T03:34:55.307Z,6.85
2023-01-01T03:35:28.303Z,6.85
2023-01-01T03:35:59.276Z,6.85
2023-01-01T03:36:32.139Z,6.85
2023-01-01T03:37:03.307Z,6.85
2023-01-01T03:37:35.657Z,6.85
2023-01-01T03:38:07.183Z,6.85
2023-01-01T03:38:35.543Z,6.85
2023-01-01T03:38:55.295Z,6.85
2023-01-01T03:39:27.340Z,6.85
2023-01-01T03:40:00.010Z,6.85
2023-01-01T03:40:31.352Z,6.85
2023-01-01T03:41:04.129Z,6.85
2023-01-01T03:41:34.814Z,6.85
2023-01-01T03:41:51.084Z,6.85
2023-01-01T03:42:23.245Z,6.85
2023-01-01T03:42:40.331Z,6.85
2023-01-01T03:43:12.114Z,6.85
2023-01-01T03:43:34.719Z,6.85
2023-01-01T03:43:59.217Z,6.85
2023-01-01T03:44:31.188Z,7.04
2023-01-01T03:45:03.518Z,7.04
2023-01-01T03:45:34.835Z,7.04
2023-01-01T03:45:51.242Z,6.80
2023-01-01T03:46:24.052Z,6.80
2023-01-01T03:46:41.318Z,6.80
2023-01-01T03:47:11.254Z,6.85
2023-01-01T03:47:34.680Z,6.85
2023-01-01T03:47:59.200Z,6.85
2023-01-01T03:48:32.110Z,6.85
2023-01-01T03:49:04.451Z,6.85
2023-01-01T03:49:34.940Z,6.85
2023-01-01T03:49:51.888Z,6.85
2023-01-01T03:50:23.314Z,7.08
2023-01-01T03:50:40.315Z,7.08
2023-01-01T03:51:11.323Z,7.08
2023-01-01T03:51:35.475Z,7.08
2023-01-01T03:51:59.987Z,7.08
2023-01-01T03:52:31.281Z,7.08
2023-01-01T03:53:04.291Z,7.08
2023-01-01T03:53:35.473Z,7.08
2023-01-01T03:54:08.159Z,7.08
2023-01-01T03:54:34.621Z,7.08
2023-01-01T03:54:58.862Z,7.08
2023-01-01T03:55:27.469Z,7.08
2023-01-01T03:55:59.223Z,7.08
2023-01-01T03:56:31.313Z,7.04
2023-01-01T03:57:03.350Z,7.04
2023-01-01T03:57:35.324Z,7.04
2023-01-01T03:58:07.697Z,7.04
2023-01-01T03:58:35.349Z,7.04
2023-01-01T03:58:55.281Z,7.04
2023-01-01T03:59:27.846Z,7.08
2023-01-01T03:59:59.142Z,7.08
2023-01-01T04:00:32.492Z,7.04
2023-01-01T04:01:03.346Z,7.04
2023-01-01T04:01:35.775Z,7.04
2023-01-01T04:02:07.328Z,7.04
2023-01-01T04:02:34.707Z,7.04
2023-01-01T04:02:55.269Z,7.04
2023-01-01T04:03:27.458Z,7.04
2023-01-01T04:04:00.163Z,7.08
2023-01-01T04:04:31.292Z,7.08
2023-01-01T04:05:04.156Z,7.08
2023-01-01T04:05:34.810Z,7.08
2023-01-01T04:05:51.210Z,7.29
2023-01-01T04:06:23.405Z,7.29
2023-01-01T04:06:40.491Z,7.29
2023-01-01T04:07:15.543Z,7.29
2023-01-01T04:07:34.689Z,7.18
2023-01-01T04:08:16.073Z,7.18
2023-01-01T04:08:35.686Z,7.18
2023-01-01T04:09:03.323Z,7.18
2023-01-01T04:09:35.676Z,7.18
2023-01-01T04:10:07.381Z,7.08
2023-01-01T04:10:39.419Z,7.08
2023-01-01T04:11:11.351Z,7.08
2023-01-01T04:11:34.726Z,7.08
2023-01-01T04:11:59.235Z,7.08
2023-01-01T04:12:32.048Z,7.08
2023-01-01T04:13:03.313Z,7.08
2023-01-01T04:13:35.527Z,7.08
2023-01-01T04:14:07.302Z,7.08
2023-01-01T04:14:34.587Z,7.08
2023-01-01T04:14:55.269Z,7.08
2023-01-01T04:15:27.427Z,7.18
2023-01-01T04:16:00.383Z,7.18
2023-01-01T04:16:31.326Z,7.18
2023-01-01T04:17:04.588Z,7.18
2023-01-01T04:17:34.733Z,7.18
2023-01-01T04:17:51.179Z,7.29
2023-01-01T04:18:23.373Z,7.29
2023-01-01T04:18:40.412Z,7.29
2023-01-01T04:19:11.925Z,7.29
2023-01-01T04:19:34.692Z,7.29
2023-01-01T04:19:59.271Z,7.18
2023-01-01T04:20:31.464Z,7.18
2023-01-01T04:21:03.297Z,7.18
2023-01-01T04:21:34.866Z,7.18
2023-01-01T04:21:51.176Z,7.18
2023-01-01T04:22:24.231Z,7.18
2023-01-01T04:22:41.472Z,7.18
2023-01-01T04:23:11.224Z,7.18
2023-01-01T04:23:34.634Z,7.18
2023-01-01T04:23:59.166Z,7.18
2023-01-01T04:24:32.033Z,7.18
2023-01-01T04:25:03.429Z,7.18
2023-01-01T04:25:35.865Z,7.18
2023-01-01T04:26:07.256Z,7.08
2023-01-01T04:26:34.766Z,7.08
2023-01-01T04:26:55.234Z,7.08
2023-01-01T04:27:27.197Z,7.08
2023-01-01T04:28:16.467Z,7.08
2023-01-01T04:28:35.333Z,7.08
2023-01-01T04:29:03.276Z,7.08
2023-01-01T04:29:34.944Z,7.08
2023-01-01T04:29:51.173Z,7.32
2023-01-01T04:30:24.477Z,7.08
2023-01-01T04:31:11.212Z,7.32
2023-01-01T04:31:34.636Z,7.32
2023-01-01T04:31:59.215Z,7.32
2023-01-01T04:32:32.372Z,7.32
2023-01-01T04:33:03.313Z,7.20
2023-01-01T04:33:35.725Z,7.20
2023-01-01T04:34:07.350Z,7.20
2023-01-01T04:34:35.651Z,7.20
2023-01-01T04:34:55.173Z,7.20
2023-01-01T04:35:27.352Z,7.32
2023-01-01T04:35:59.854Z,7.08
2023-01-01T04:36:31.297Z,7.32
2023-01-01T04:37:08.233Z,7.32
2023-01-01T04:37:34.792Z,7.32
2023-01-01T04:37:51.197Z,7.32
2023-01-01T04:38:23.324Z,7.32
2023-01-01T04:38:40.309Z,7.32
2023-01-01T04:39:12.062Z,7.32
2023-01-01T04:39:35.280Z,7.32
2023-01-01T04:39:59.237Z,7.32
2023-01-01T04:40:31.338Z,7.08
2023-01-01T04:41:03.212Z,7.42
2023-01-01T04:41:34.642Z,7.42
2023-01-01T04:41:51.112Z,7.42
2023-01-01T04:42:23.940Z,7.42
2023-01-01T04:42:41.033Z,7.42
2023-01-01T04:43:11.227Z,7.32
2023-01-01T04:43:34.748Z,7.32
2023-01-01T04:43:59.270Z,7.32
2023-01-01T04:44:31.993Z,7.32
2023-01-01T04:45:03.410Z,7.32
2023-01-01T04:45:36.201Z,7.32
2023-01-01T04:46:07.242Z,7.32
2023-01-01T04:46:35.358Z,7.32
2023-01-01T04:47:00.005Z,7.32
2023-01-01T04:47:27.244Z,7.32
2023-01-01T04:48:00.216Z,7.32
2023-01-01T04:48:31.119Z,7.32
2023-01-01T04:49:04.111Z,7.20
2023-01-01T04:49:34.924Z,7.20
2023-01-01T04:49:51.344Z,7.20
2023-01-01T04:50:23.417Z,7.44
2023-01-01T04:50:40.336Z,7.20
2023-01-01T04:51:28.026Z,7.20
2023-01-01T04:51:59.243Z,7.20
2023-01-01T04:52:32.132Z,7.20
2023-01-01T04:53:03.291Z,7.20
2023-01-01T04:53:35.498Z,7.20
2023-01-01T04:54:23.243Z,7.20
2023-01-01T04:54:41.198Z,7.20
2023-01-01T04:55:11.388Z,7.20
2023-01-01T04:55:34.764Z,7.20
2023-01-01T04:55:59.399Z,7.20
2023-01-01T04:56:31.783Z,7.20
2023-01-01T04:57:04.250Z,7.20
2023-01-01T04:57:34.666Z,7.20
2023-01-01T04:57:51.130Z,7.44
2023-01-01T04:58:23.350Z,7.44
2023-01-01T04:58:40.300Z,7.44
2023-01-01T04:59:12.129Z,7.44
2023-01-01T04:59:34.774Z,7.44
2023-01-01T04:59:59.282Z,7.33
2023-01-01T05:00:31.476Z,7.33
2023-01-01T05:01:03.286Z,7.33
2023-01-01T05:01:34.734Z,7.33
2023-01-01T05:01:51.406Z,7.33
2023-01-01T05:02:24.256Z,7.33
2023-01-01T05:02:41.329Z,7.33
2023-01-01T05:03:11.291Z,7.33
2023-01-01T05:03:34.835Z,7.33
2023-01-01T05:04:15.322Z,7.33
2023-01-01T05:04:35.272Z,7.33
2023-01-01T05:05:03.367Z,7.33
2023-01-01T05:05:35.506Z,7.33
2023-01-01T05:06:07.272Z,7.33
2023-01-01T05:06:34.599Z,7.33
2023-01-01T05:06:55.142Z,7.33
2023-01-01T05:07:27.260Z,7.33
2023-01-01T05:08:00.187Z,7.33
2023-01-01T05:08:31.172Z,7.33
2023-01-01T05:09:04.204Z,7.33
2023-01-01T05:09:35.396Z,7.33
2023-01-01T05:10:07.994Z,7.57
2023-01-01T05:10:34.845Z,7.57
2023-01-01T05:10:55.288Z,7.57
2023-01-01T05:11:27.359Z,7.57
2023-01-01T05:11:59.266Z,7.57
2023-01-01T05:12:32.018Z,7.57
2023-01-01T05:13:03.364Z,7.57
2023-01-01T05:13:36.729Z,7.57
2023-01-01T05:14:07.128Z,7.57
2023-01-01T05:14:35.207Z,7.57
2023-01-01T05:14:55.209Z,7.57
2023-01-01T05:15:27.461Z,7.57
2023-01-01T05:15:59.942Z,7.57
2023-01-01T05:16:31.301Z,7.79
2023-01-01T05:17:04.006Z,7.79
2023-01-01T05:17:35.382Z,7.79
2023-01-01T05:18:07.976Z,7.79
2023-01-01T05:18:34.630Z,7.79
2023-01-01T05:18:55.222Z,7.79
2023-01-01T05:19:27.267Z,7.75
2023-01-01T05:19:59.209Z,7.75
2023-01-01T05:20:31.291Z,7.75
2023-01-01T05:21:03.303Z,7.75
2023-01-01T05:21:34.628Z,7.75
2023-01-01T05:21:51.073Z,7.75
2023-01-01T05:22:23.958Z,7.75
2023-01-01T05:22:41.072Z,7.75
2023-01-01T05:23:11.213Z,7.75
2023-01-01T05:23:35.006Z,7.75
2023-01-01T05:23:59.164Z,7.75
2023-01-01T05:24:32.020Z,7.79
2023-01-01T05:25:03.766Z,7.79
2023-01-01T05:25:35.613Z,7.79
2023-01-01T05:26:07.381Z,7.90
2023-01-01T05:26:35.067Z,7.90
2023-01-01T05:26:55.141Z,7.79
2023-01-01T05:27:27.658Z,7.79
2023-01-01T05:28:00.899Z,7.79
2023-01-01T05:28:31.458Z,7.79
2023-01-01T05:29:19.969Z,7.79
2023-01-01T05:29:51.643Z,7.79
2023-01-01T05:30:24.847Z,7.90
2023-01-01T05:30:41.761Z,7.90
2023-01-01T05:31:11.196Z,7.90
2023-01-01T05:31:34.841Z,7.90
2023-01-01T05:31:59.339Z,8.12
2023-01-01T05:32:32.059Z,8.12
2023-01-01T05:33:03.268Z,8.12
2023-01-01T05:33:35.713Z,8.12
2023-01-01T05:34:55.224Z,8.02
2023-01-01T05:35:27.407Z,8.02
2023-01-01T05:35:59.960Z,8.02
2023-01-01T05:36:31.214Z,8.02
2023-01-01T05:37:03.881Z,7.79
2023-01-01T05:37:34.929Z,7.79
2023-01-01T05:38:08.191Z,7.79
2023-01-01T05:38:34.655Z,7.79
2023-01-01T05:38:55.259Z,7.79
2023-01-01T05:39:27.154Z,7.90
2023-01-01T05:39:59.173Z,7.90
2023-01-01T05:40:31.423Z,7.90
2023-01-01T05:41:03.294Z,8.12
2023-01-01T05:41:34.769Z,8.12
2023-01-01T05:41:51.060Z,8.12
2023-01-01T05:42:24.082Z,8.12
2023-01-01T05:42:41.151Z,8.12
2023-01-01T05:43:11.259Z,8.34
2023-01-01T05:43:34.579Z,8.34
2023-01-01T05:43:59.124Z,8.34
2023-01-01T05:44:31.915Z,8.24
2023-01-01T05:45:03.530Z,8.24
2023-01-01T05:45:35.603Z,8.24
2023-01-01T05:46:07.345Z,8.24
2023-01-01T05:46:35.251Z,8.24
2023-01-01T05:46:55.283Z,8.24
2023-01-01T05:47:29.782Z,8.24
2023-01-01T05:47:59.987Z,8.24
2023-01-01T05:48:31.231Z,8.24
2023-01-01T05:49:03.336Z,8.24
2023-01-01T05:49:34.706Z,8.24
2023-01-01T05:49:51.965Z,8.24
2023-01-01T05:50:23.352Z,8.19
2023-01-01T05:50:40.364Z,8.19
2023-01-01T05:51:11.490Z,8.19
2023-01-01T05:51:59.953Z,8.19
2023-01-01T05:52:31.229Z,8.19
2023-01-01T05:53:03.906Z,8.19
2023-01-01T05:53:34.947Z,8.24
2023-01-01T05:54:34.640Z,8.24
2023-01-01T05:54:55.220Z,8.24
2023-01-01T05:55:27.354Z,8.19
2023-01-01T05:56:16.171Z,8.40
2023-01-01T05:56:34.611Z,8.40
2023-01-01T05:57:03.301Z,8.40
2023-01-01T05:57:36.682Z,8.40
2023-01-01T05:58:07.177Z,8.30
2023-01-01T05:58:34.687Z,8.30
2023-01-01T05:58:55.251Z,8.30
2023-01-01T05:59:35.532Z,8.30
2023-01-01T05:59:59.166Z,8.30
2023-01-01T06:00:31.490Z,8.30
2023-01-01T06:01:03.308Z,8.30
2023-01-01T06:01:37.605Z,8.30
2023-01-01T06:01:51.962Z,8.09
2023-01-01T06:02:23.324Z,8.09
2023-01-01T06:02:40.396Z,8.09
2023-01-01T06:03:11.153Z,8.30
2023-01-01T06:03:34.610Z,8.30
2023-01-01T06:03:59.980Z,8.30
2023-01-01T06:04:31.235Z,8.30
2023-01-01T06:05:04.203Z,8.30
2023-01-01T06:05:34.688Z,8.30
2023-01-01T06:05:51.299Z,8.30
2023-01-01T06:06:23.343Z,8.30
2023-01-01T06:06:40.488Z,8.30
2023-01-01T06:07:11.856Z,8.30
2023-01-01T06:07:34.649Z,8.30
2023-01-01T06:07:59.298Z,8.30
2023-01-01T06:08:31.229Z,8.09
2023-01-01T06:09:03.305Z,8.30
2023-01-01T06:09:34.688Z,8.30
2023-01-01T06:09:51.459Z,8.30
2023-01-01T06:10:24.140Z,8.30
2023-01-01T06:10:40.978Z,8.09
2023-01-01T06:11:11.316Z,8.09
2023-01-01T06:11:34.606Z,8.09
2023-01-01T06:11:59.267Z,8.09
2023-01-01T06:12:32.036Z,8.09
2023-01-01T06:13:06.725Z,8.09
2023-01-01T06:13:35.849Z,8.09
2023-01-01T06:14:07.237Z,8.09
2023-01-01T06:14:34.648Z,8.19
2023-01-01T06:14:55.207Z,8.19
2023-01-01T06:15:35.496Z,8.19
2023-01-01T06:16:00.035Z,8.19
2023-01-01T06:16:31.322Z,8.19
2023-01-01T06:17:03.819Z,8.19
2023-01-01T06:17:34.687Z,8.19
2023-01-01T06:17:51.043Z,8.19
2023-01-01T06:18:34.522Z,8.19
2023-01-01T06:18:55.314Z,8.19
2023-01-01T06:19:28.018Z,8.19
2023-01-01T06:19:59.192Z,8.19
2023-01-01T06:20:31.366Z,8.19
2023-01-01T06:21:03.330Z,8.19
2023-01-01T06:21:35.054Z,8.19
2023-01-01T06:22:07.390Z,8.19
2023-01-01T06:22:36.428Z,8.19
2023-01-01T06:22:55.194Z,8.24
2023-01-01T06:23:27.129Z,8.24
2023-01-01T06:23:59.282Z,8.24
2023-01-01T06:24:36.977Z,8.24